createdAt,value
2023-04-18T00:00:04.671Z,8.72
2023-04-18T00:01:04.605Z,8.72
2023-04-18T00:02:04.740Z,8.72
2023-04-18T00:03:05.100Z,8.72
2023-04-18T00:04:04.724Z,8.72
2023-04-18T00:05:04.625Z,8.72
2023-04-18T00:06:04.599Z,8.72
2023-04-18T00:07:04.541Z,8.73
2023-04-18T00:08:04.576Z,8.72
2023-04-18T00:09:04.527Z,8.72
2023-04-18T00:10:05.223Z,8.75
2023-04-18T00:11:04.620Z,8.75
2023-04-18T00:12:04.504Z,8.75
2023-04-18T00:13:04.436Z,8.76
2023-04-18T00:14:04.495Z,8.76
2023-04-18T00:15:04.432Z,8.79
2023-04-18T00:16:04.441Z,8.79
2023-04-18T00:17:04.563Z,8.83
2023-04-18T00:18:04.416Z,8.81
2023-04-18T00:19:04.385Z,8.78
2023-04-18T00:20:04.406Z,8.78
2023-04-18T00:21:04.402Z,8.76
2023-04-18T00:22:04.387Z,8.78
2023-04-18T00:23:04.428Z,8.76
2023-04-18T00:24:04.328Z,8.76
2023-04-18T00:25:04.302Z,8.76
2023-04-18T00:26:04.359Z,8.76
2023-04-18T00:27:04.267Z,8.76
2023-04-18T00:28:04.267Z,8.73
2023-04-18T00:29:04.319Z,8.73
2023-04-18T00:30:04.237Z,8.73
2023-04-18T00:31:04.331Z,8.71
2023-04-18T00:32:04.240Z,8.72
2023-04-18T00:33:04.208Z,8.72
2023-04-18T00:34:04.208Z,8.69
2023-04-18T00:35:04.300Z,8.69
2023-04-18T00:36:04.159Z,8.71
2023-04-18T00:37:04.172Z,8.69
2023-04-18T00:38:04.119Z,8.69
2023-04-18T00:39:04.125Z,8.68
2023-04-18T00:40:04.136Z,8.69
2023-04-18T00:41:04.092Z,8.68
2023-04-18T00:42:04.128Z,8.66
2023-04-18T00:43:04.053Z,8.65
2023-04-18T00:44:04.071Z,8.65
2023-04-18T00:45:04.030Z,8.65
2023-04-18T00:46:04.109Z,8.63
2023-04-18T00:47:04.032Z,8.62
2023-04-18T00:48:04.048Z,8.62
2023-04-18T00:49:03.983Z,8.58
2023-04-18T00:50:03.987Z,8.58
2023-04-18T00:51:03.953Z,8.57
2023-04-18T00:52:03.973Z,8.55
2023-04-18T00:53:03.935Z,8.55
2023-04-18T00:54:03.944Z,8.57
2023-04-18T00:55:03.884Z,8.55
2023-04-18T00:56:03.893Z,8.55
2023-04-18T00:57:03.877Z,8.55
2023-04-18T00:58:03.875Z,8.55
2023-04-18T00:59:03.981Z,8.54
2023-04-18T01:00:03.808Z,8.53
2023-04-18T01:01:03.867Z,8.53
2023-04-18T01:02:03.951Z,8.53
2023-04-18T01:03:04.042Z,8.53
2023-04-18T01:04:03.868Z,8.53
2023-04-18T01:05:03.885Z,8.50
2023-04-18T01:06:03.748Z,8.47
2023-04-18T01:07:03.761Z,8.47
2023-04-18T01:08:03.703Z,8.47
2023-04-18T01:09:03.742Z,8.45
2023-04-18T01:10:03.688Z,8.44
2023-04-18T01:11:03.862Z,8.45
2023-04-18T01:12:03.669Z,8.44
2023-04-18T01:13:03.669Z,8.40
2023-04-18T01:14:03.630Z,8.40
2023-04-18T01:15:03.664Z,8.39
2023-04-18T01:16:03.656Z,8.40
2023-04-18T01:17:03.712Z,8.37
2023-04-18T01:18:03.688Z,8.36
2023-04-18T01:19:03.566Z,8.36
2023-04-18T01:20:03.546Z,8.37
2023-04-18T01:21:03.582Z,8.37
2023-04-18T01:22:03.517Z,8.39
2023-04-18T01:23:03.590Z,8.36
2023-04-18T01:24:03.550Z,8.36
2023-04-18T01:25:03.514Z,8.36
2023-04-18T01:26:03.485Z,8.37
2023-04-18T01:27:03.469Z,8.36
2023-04-18T01:28:03.461Z,8.35
2023-04-18T01:29:03.513Z,8.35
2023-04-18T01:30:03.427Z,8.35
2023-04-18T01:31:03.492Z,8.35
2023-04-18T01:32:03.370Z,8.32
2023-04-18T01:33:03.469Z,8.32
2023-04-18T01:34:03.336Z,8.32
2023-04-18T01:35:03.517Z,8.30
2023-04-18T01:36:03.362Z,8.30
2023-04-18T01:37:03.331Z,8.30
2023-04-18T01:38:03.316Z,8.29
2023-04-18T01:39:03.318Z,8.29
2023-04-18T01:40:03.281Z,8.29
2023-04-18T01:41:03.347Z,8.28
2023-04-18T01:42:03.229Z,8.26
2023-04-18T01:43:03.268Z,8.25
2023-04-18T01:44:03.246Z,8.25
2023-04-18T01:45:03.232Z,8.25
2023-04-18T01:46:03.186Z,8.25
2023-04-18T01:47:03.387Z,8.22
2023-04-18T01:48:03.200Z,8.20
2023-04-18T01:49:03.160Z,8.21
2023-04-18T01:50:03.161Z,8.17
2023-04-18T01:51:03.145Z,8.14
2023-04-18T01:52:03.114Z,8.11
2023-04-18T01:53:03.185Z,8.07
2023-04-18T01:54:03.085Z,8.03
2023-04-18T01:55:03.151Z,7.99
2023-04-18T01:56:03.098Z,7.97
2023-04-18T01:57:03.071Z,7.96
2023-04-18T01:58:03.760Z,7.94
2023-04-18T01:59:03.083Z,7.92
2023-04-18T02:00:03.016Z,7.89
2023-04-18T02:01:03.053Z,7.85
2023-04-18T02:02:03.010Z,7.81
2023-04-18T02:03:03.110Z,7.78
2023-04-18T02:04:03.017Z,7.77
2023-04-18T02:05:02.983Z,7.75
2023-04-18T02:06:02.934Z,7.77
2023-04-18T02:07:02.939Z,7.75
2023-04-18T02:08:02.916Z,7.74
2023-04-18T02:09:02.922Z,7.74
2023-04-18T02:10:02.869Z,7.74
2023-04-18T02:11:03.021Z,7.72
2023-04-18T02:12:02.874Z,7.71
2023-04-18T02:13:02.836Z,7.71
2023-04-18T02:14:03.797Z,7.71
2023-04-18T02:15:02.809Z,7.69
2023-04-18T02:16:02.809Z,7.69
2023-04-18T02:17:02.846Z,7.67
2023-04-18T02:18:02.811Z,7.67
2023-04-18T02:19:02.751Z,7.67
2023-04-18T02:20:02.733Z,7.67
2023-04-18T02:21:02.764Z,7.67
2023-04-18T02:22:02.693Z,7.69
2023-04-18T02:23:02.765Z,7.67
2023-04-18T02:24:02.718Z,7.67
2023-04-18T02:25:02.696Z,7.66
2023-04-18T02:26:02.665Z,7.63
2023-04-18T02:27:02.665Z,7.63
2023-04-18T02:28:02.638Z,7.62
2023-04-18T02:29:02.709Z,7.62
2023-04-18T02:30:02.591Z,7.60
2023-04-18T02:31:02.630Z,7.59
2023-04-18T02:32:02.691Z,7.55
2023-04-18T02:33:02.617Z,7.55
2023-04-18T02:34:02.524Z,7.50
2023-04-18T02:35:02.714Z,7.47
2023-04-18T02:36:02.536Z,7.47
2023-04-18T02:37:02.523Z,7.44
2023-04-18T02:38:02.507Z,7.42
2023-04-18T02:39:02.487Z,7.38
2023-04-18T02:40:02.453Z,7.40
2023-04-18T02:41:02.555Z,7.40
2023-04-18T02:42:02.429Z,7.38
2023-04-18T02:43:02.485Z,7.40
2023-04-18T02:44:02.424Z,7.40
2023-04-18T02:45:02.437Z,7.40
2023-04-18T02:46:02.429Z,7.41
2023-04-18T02:47:02.498Z,7.40
2023-04-18T02:48:02.385Z,7.42
2023-04-18T02:49:02.387Z,7.44
2023-04-18T02:50:02.356Z,7.42
2023-04-18T02:51:02.324Z,7.44
2023-04-18T02:52:02.295Z,7.44
2023-04-18T02:53:02.443Z,7.45
2023-04-18T02:54:02.295Z,7.45
2023-04-18T02:55:02.354Z,7.47
2023-04-18T02:56:02.270Z,7.44
2023-04-18T02:57:02.328Z,7.42
2023-04-18T02:58:02.262Z,7.40
2023-04-18T02:59:02.261Z,7.35
2023-04-18T03:00:02.190Z,7.29
2023-04-18T03:01:02.280Z,7.27
2023-04-18T03:02:02.265Z,7.23
2023-04-18T03:03:02.310Z,7.20
2023-04-18T03:04:02.203Z,7.20
2023-04-18T03:05:02.364Z,7.20
2023-04-18T03:06:02.136Z,7.19
2023-04-18T03:07:02.115Z,7.17
2023-04-18T03:08:02.193Z,7.19
2023-04-18T03:09:02.129Z,7.19
2023-04-18T03:10:02.076Z,7.20
2023-04-18T03:11:02.129Z,7.22
2023-04-18T03:12:02.109Z,7.23
2023-04-18T03:13:02.121Z,7.23
2023-04-18T03:14:02.070Z,7.23
2023-04-18T03:15:02.036Z,7.23
2023-04-18T03:16:02.002Z,7.23
2023-04-18T03:17:02.108Z,7.23
2023-04-18T03:18:02.034Z,7.23
2023-04-18T03:19:01.986Z,7.22
2023-04-18T03:20:01.993Z,7.19
2023-04-18T03:21:02.046Z,7.19
2023-04-18T03:22:01.944Z,7.17
2023-04-18T03:23:01.995Z,7.20
2023-04-18T03:24:01.896Z,7.17
2023-04-18T03:25:01.876Z,7.19
2023-04-18T03:26:01.868Z,7.16
2023-04-18T03:27:01.868Z,7.15
2023-04-18T03:28:01.801Z,7.15
2023-04-18T03:29:01.985Z,7.13
2023-04-18T03:30:01.853Z,7.15
2023-04-18T03:31:01.867Z,7.15
2023-04-18T03:32:01.798Z,7.15
2023-04-18T03:33:01.863Z,7.16
2023-04-18T03:34:01.800Z,7.16
2023-04-18T03:35:01.860Z,7.17
2023-04-18T03:36:01.700Z,7.19
2023-04-18T03:37:01.762Z,7.17
2023-04-18T03:38:01.710Z,7.17
2023-04-18T03:39:01.690Z,7.15
2023-04-18T03:40:01.659Z,7.16
2023-04-18T03:41:01.718Z,7.15
2023-04-18T03:42:01.610Z,7.13
2023-04-18T03:43:01.708Z,7.13
2023-04-18T03:44:01.629Z,7.13
2023-04-18T03:45:01.616Z,7.12
2023-04-18T03:46:01.617Z,7.13
2023-04-18T03:47:01.626Z,7.13
2023-04-18T03:48:01.584Z,7.12
2023-04-18T03:49:01.620Z,7.12
2023-04-18T03:50:01.526Z,7.12
2023-04-18T03:51:01.566Z,7.09
2023-04-18T03:52:01.515Z,7.09
2023-04-18T03:53:01.543Z,7.09
2023-04-18T03:54:01.479Z,7.12
2023-04-18T03:55:01.555Z,7.12
2023-04-18T03:56:01.458Z,7.09
2023-04-18T03:57:01.469Z,7.12
2023-04-18T03:58:01.501Z,7.12
2023-04-18T03:59:01.455Z,7.12
2023-04-18T04:00:01.386Z,7.13
2023-04-18T04:01:01.420Z,7.13
2023-04-18T04:02:01.508Z,7.15
2023-04-18T04:03:01.670Z,7.15
2023-04-18T04:04:01.492Z,7.16
2023-04-18T04:05:01.399Z,7.17
2023-04-18T04:06:01.330Z,7.16
2023-04-18T04:07:01.326Z,7.15
2023-04-18T04:08:01.280Z,7.13
2023-04-18T04:09:01.348Z,7.15
2023-04-18T04:10:01.375Z,7.15
2023-04-18T04:11:01.411Z,7.15
2023-04-18T04:12:01.257Z,7.13
2023-04-18T04:13:01.239Z,7.15
2023-04-18T04:14:01.241Z,7.16
2023-04-18T04:15:01.203Z,7.17
2023-04-18T04:16:01.207Z,7.17
2023-04-18T04:17:01.256Z,7.17
2023-04-18T04:18:01.166Z,7.15
2023-04-18T04:19:01.205Z,7.15
2023-04-18T04:20:01.139Z,7.15
2023-04-18T04:21:01.133Z,7.16
2023-04-18T04:22:01.130Z,7.16
2023-04-18T04:23:01.143Z,7.15
2023-04-18T04:24:01.069Z,7.15
2023-04-18T04:25:01.113Z,7.15
2023-04-18T04:26:01.062Z,7.13
2023-04-18T04:27:01.043Z,7.15
2023-04-18T04:28:01.029Z,7.15
2023-04-18T04:29:01.085Z,7.16
2023-04-18T04:30:00.985Z,7.15
2023-04-18T04:31:01.013Z,7.13
2023-04-18T04:32:00.983Z,7.12
2023-04-18T04:33:01.015Z,7.13
2023-04-18T04:34:00.952Z,7.13
2023-04-18T04:35:00.991Z,7.13
2023-04-18T04:36:00.900Z,7.15
2023-04-18T04:37:00.956Z,7.13
2023-04-18T04:38:00.872Z,7.15
2023-04-18T04:39:00.908Z,7.15
2023-04-18T04:40:00.959Z,7.13
2023-04-18T04:41:00.921Z,7.15
2023-04-18T04:42:00.826Z,7.16
2023-04-18T04:43:00.862Z,7.17
2023-04-18T04:44:00.848Z,7.15
2023-04-18T04:45:00.835Z,7.16
2023-04-18T04:46:00.868Z,7.13
2023-04-18T04:47:00.940Z,7.15
2023-04-18T04:48:00.802Z,7.13
2023-04-18T04:49:00.777Z,7.13
2023-04-18T04:50:00.732Z,7.15
2023-04-18T04:51:00.758Z,7.15
2023-04-18T04:52:01.908Z,7.16
2023-04-18T04:53:00.808Z,7.16
2023-04-18T04:54:00.696Z,7.16
2023-04-18T04:55:00.667Z,7.16
2023-04-18T04:56:00.632Z,7.16
2023-04-18T04:57:00.685Z,7.17
2023-04-18T04:58:00.635Z,7.17
2023-04-18T04:59:00.661Z,7.17
2023-04-18T05:00:00.583Z,7.17
2023-04-18T05:01:00.665Z,7.17
2023-04-18T05:02:00.603Z,7.17
2023-04-18T05:03:00.792Z,7.16
2023-04-18T05:04:00.727Z,7.13
2023-04-18T05:05:00.580Z,7.16
2023-04-18T05:06:00.529Z,7.17
2023-04-18T05:07:00.514Z,7.17
2023-04-18T05:08:00.483Z,7.17
2023-04-18T05:09:00.512Z,7.17
2023-04-18T05:10:00.442Z,7.17
2023-04-18T05:11:00.549Z,7.19
2023-04-18T05:12:00.445Z,7.19
2023-04-18T05:13:00.429Z,7.20
2023-04-18T05:14:00.428Z,7.19
2023-04-18T05:15:00.401Z,7.22
2023-04-18T05:16:00.458Z,7.22
2023-04-18T05:17:00.486Z,7.20
2023-04-18T05:18:00.399Z,7.20
2023-04-18T05:19:00.325Z,7.22
2023-04-18T05:20:00.381Z,7.24
2023-04-18T05:21:00.316Z,7.24
2023-04-18T05:22:00.677Z,7.24
2023-04-18T05:23:00.322Z,7.24
2023-04-18T05:24:00.305Z,7.24
2023-04-18T05:25:00.252Z,7.22
2023-04-18T05:26:00.274Z,7.20
2023-04-18T05:27:00.210Z,7.22
2023-04-18T05:28:00.226Z,7.20
2023-04-18T05:29:00.252Z,7.20
2023-04-18T05:30:00.254Z,7.22
2023-04-18T05:31:00.201Z,7.23
2023-04-18T05:33:13.992Z,7.26
2023-04-18T05:34:12.838Z,7.31
2023-04-18T05:35:13.836Z,7.34
2023-04-18T05:36:15.717Z,7.40
2023-04-18T05:37:13.593Z,7.41
2023-04-18T05:38:12.039Z,7.44
2023-04-18T05:39:13.915Z,7.45
2023-04-18T05:40:14.447Z,7.49
2023-04-18T05:41:16.412Z,7.50
2023-04-18T05:42:17.826Z,7.55
2023-04-18T05:43:16.331Z,7.52
2023-04-18T05:44:14.176Z,7.56
2023-04-18T05:45:13.839Z,7.53
2023-04-18T05:46:37.602Z,7.56
2023-04-18T05:47:11.909Z,7.56
2023-04-18T05:48:17.898Z,7.56
2023-04-18T05:49:15.493Z,7.55
2023-04-18T05:50:14.275Z,7.53
2023-04-18T05:51:11.729Z,7.56
2023-04-18T05:52:14.145Z,7.58
2023-04-18T05:53:11.824Z,7.59
2023-04-18T05:54:13.723Z,7.63
2023-04-18T05:55:16.187Z,7.63
2023-04-18T05:56:17.392Z,7.66
2023-04-18T05:57:12.288Z,7.67
2023-04-18T05:58:23.205Z,7.74
2023-04-18T06:00:25.886Z,7.79
2023-04-18T06:01:24.005Z,7.81
2023-04-18T06:02:26.202Z,7.84
2023-04-18T06:03:24.448Z,7.85
2023-04-18T06:04:23.280Z,7.92
2023-04-18T06:05:27.323Z,7.92
2023-04-18T06:06:23.131Z,7.96
2023-04-18T06:07:23.699Z,7.96
2023-04-18T06:08:27.033Z,7.93
2023-04-18T06:09:47.149Z,7.94
2023-04-18T06:10:22.780Z,7.93
2023-04-18T06:11:23.622Z,7.93
2023-04-18T06:12:24.772Z,7.93
2023-04-18T06:13:23.443Z,7.92
2023-04-18T06:14:24.481Z,7.92
2023-04-18T06:15:25.613Z,7.92
2023-04-18T06:16:23.074Z,7.93
2023-04-18T06:17:26.928Z,7.96
2023-04-18T06:18:22.729Z,7.99
2023-04-18T06:19:27.289Z,7.99
2023-04-18T06:20:22.626Z,7.99
2023-04-18T06:21:22.573Z,7.99
2023-04-18T06:22:22.576Z,7.92
2023-04-18T06:23:22.491Z,7.89
2023-04-18T06:24:22.508Z,7.92
2023-04-18T06:25:22.494Z,7.93
2023-04-18T06:26:22.484Z,7.96
2023-04-18T06:27:30.539Z,7.97
2023-04-18T06:28:23.478Z,7.96
2023-04-18T06:29:22.412Z,7.94
2023-04-18T06:30:22.461Z,7.92
2023-04-18T06:31:22.433Z,7.92
2023-04-18T06:32:22.415Z,7.90
2023-04-18T06:33:22.425Z,7.90
2023-04-18T06:34:22.376Z,7.92
2023-04-18T06:35:23.259Z,7.92
2023-04-18T06:36:22.381Z,7.94
2023-04-18T06:37:22.309Z,7.96
2023-04-18T06:38:22.322Z,8.02
2023-04-18T06:39:22.351Z,8.04
2023-04-18T06:40:22.319Z,8.03
2023-04-18T06:41:22.255Z,8.03
2023-04-18T06:42:22.643Z,8.08
2023-04-18T06:43:22.228Z,8.12
2023-04-18T06:44:22.238Z,8.20
2023-04-18T06:45:22.358Z,8.21
2023-04-18T06:46:22.487Z,8.20
2023-04-18T06:47:22.227Z,8.25
2023-04-18T06:48:22.213Z,8.28
2023-04-18T06:49:26.434Z,8.36
2023-04-18T06:50:22.191Z,8.45
2023-04-18T06:51:22.152Z,8.55
2023-04-18T06:52:22.133Z,8.63
2023-04-18T06:53:22.123Z,8.72
2023-04-18T06:54:22.107Z,8.78
2023-04-18T06:55:22.094Z,8.79
2023-04-18T06:56:22.140Z,8.83
2023-04-18T06:57:22.084Z,8.91
2023-04-18T06:58:22.084Z,8.94
2023-04-18T06:59:22.016Z,8.93
2023-04-18T07:00:22.029Z,8.96
2023-04-18T07:01:22.129Z,8.99
2023-04-18T07:02:22.064Z,8.96
2023-04-18T07:03:22.254Z,9.02
2023-04-18T07:04:22.212Z,9.10
2023-04-18T07:05:21.937Z,9.16
2023-04-18T07:06:21.974Z,9.10
2023-04-18T07:07:21.906Z,9.12
2023-04-18T07:08:21.923Z,9.05
2023-04-18T07:09:22.024Z,9.05
2023-04-18T07:10:21.926Z,9.16
2023-04-18T07:11:21.853Z,9.28
2023-04-18T07:12:21.861Z,9.30
2023-04-18T07:13:21.857Z,9.34
2023-04-18T07:14:21.842Z,9.38
2023-04-18T07:15:21.927Z,9.39
2023-04-18T07:16:21.996Z,9.45
2023-04-18T07:17:21.850Z,9.48
2023-04-18T07:18:34.330Z,9.53
2023-04-18T07:19:22.771Z,9.60
2023-04-18T07:20:21.764Z,9.58
2023-04-18T07:21:21.766Z,9.52
2023-04-18T07:22:21.727Z,9.52
2023-04-18T07:23:21.716Z,9.76
2023-04-18T07:24:21.738Z,10.03
2023-04-18T07:25:21.662Z,10.17
2023-04-18T07:26:21.672Z,10.22
2023-04-18T07:27:21.692Z,10.10
2023-04-18T07:28:21.682Z,9.99
2023-04-18T07:29:21.623Z,10.03
2023-04-18T07:30:21.652Z,10.09
2023-04-18T07:31:21.594Z,10.00
2023-04-18T07:32:21.617Z,10.12
2023-04-18T07:33:21.600Z,10.19
2023-04-18T07:34:21.571Z,10.28
2023-04-18T07:35:21.555Z,10.30
2023-04-18T07:36:21.578Z,10.24
2023-04-18T07:37:21.511Z,10.21
2023-04-18T07:38:21.552Z,10.18
2023-04-18T07:39:21.509Z,10.15
2023-04-18T07:40:21.495Z,10.21
2023-04-18T07:41:21.476Z,10.28
2023-04-18T07:42:21.494Z,10.34
2023-04-18T07:43:21.471Z,10.34
2023-04-18T07:44:21.455Z,10.39
2023-04-18T07:45:21.543Z,10.46
2023-04-18T07:46:21.512Z,10.59
2023-04-18T07:47:22.612Z,10.65
2023-04-18T07:48:21.419Z,10.70
2023-04-18T07:49:21.352Z,10.78
2023-04-18T07:50:21.393Z,10.92
2023-04-18T07:51:21.438Z,10.94
2023-04-18T07:52:21.378Z,10.86
2023-04-18T07:53:21.325Z,10.89
2023-04-18T07:54:21.312Z,11.03
2023-04-18T07:55:21.311Z,11.13
2023-04-18T07:56:21.312Z,11.14
2023-04-18T07:57:21.581Z,11.17
2023-04-18T07:58:21.279Z,11.11
2023-04-18T07:59:21.256Z,11.19
2023-04-18T08:00:21.208Z,11.68
2023-04-18T08:01:21.253Z,11.61
2023-04-18T08:02:21.249Z,11.82
2023-04-18T08:03:21.417Z,12.15
2023-04-18T08:04:21.257Z,12.71
2023-04-18T08:05:21.230Z,13.22
2023-04-18T08:06:21.159Z,13.54
2023-04-18T08:07:21.147Z,13.81
2023-04-18T08:08:21.094Z,13.98
2023-04-18T08:09:21.245Z,13.81
2023-04-18T08:10:23.246Z,14.10
2023-04-18T08:11:21.124Z,14.24
2023-04-18T08:12:21.071Z,14.64
2023-04-18T08:13:21.058Z,15.01
2023-04-18T08:14:21.017Z,15.31
2023-04-18T08:15:21.155Z,15.30
2023-04-18T08:16:21.030Z,14.86
2023-04-18T08:17:21.052Z,14.42
2023-04-18T08:18:20.987Z,13.94
2023-04-18T08:19:20.981Z,13.55
2023-04-18T08:20:20.940Z,13.11
2023-04-18T08:21:20.997Z,12.89
2023-04-18T08:22:20.923Z,12.54
2023-04-18T08:23:20.959Z,12.30
2023-04-18T08:24:20.907Z,12.13
2023-04-18T08:25:20.897Z,11.96
2023-04-18T08:26:20.879Z,11.90
2023-04-18T08:27:20.911Z,11.97
2023-04-18T08:28:20.837Z,12.04
2023-04-18T08:29:20.870Z,12.09
2023-04-18T08:30:20.830Z,12.13
2023-04-18T08:31:20.901Z,12.15
2023-04-18T08:32:20.832Z,12.15
2023-04-18T08:33:20.933Z,12.13
2023-04-18T08:34:20.751Z,12.16
2023-04-18T08:35:20.803Z,12.09
2023-04-18T08:36:20.751Z,12.09
2023-04-18T08:37:20.744Z,12.12
2023-04-18T08:38:20.735Z,12.13
2023-04-18T08:39:20.820Z,12.23
2023-04-18T08:40:20.698Z,12.31
2023-04-18T08:41:20.746Z,12.34
2023-04-18T08:42:20.668Z,12.33
2023-04-18T08:43:20.680Z,12.31
2023-04-18T08:44:20.753Z,12.33
2023-04-18T08:45:20.767Z,12.38
2023-04-18T08:46:20.678Z,12.38
2023-04-18T08:47:20.650Z,12.45
2023-04-18T08:48:20.601Z,12.48
2023-04-18T08:49:20.579Z,12.49
2023-04-18T08:50:20.568Z,12.31
2023-04-18T08:51:20.589Z,12.30
2023-04-18T08:52:20.512Z,12.24
2023-04-18T08:53:20.554Z,12.12
2023-04-18T08:54:20.485Z,12.19
2023-04-18T08:55:20.531Z,12.21
2023-04-18T08:56:20.488Z,12.39
2023-04-18T08:57:20.589Z,12.56
2023-04-18T08:58:20.453Z,12.60
2023-04-18T08:59:20.463Z,12.60
2023-04-18T09:00:20.411Z,12.69
2023-04-18T09:01:20.510Z,12.74
2023-04-18T09:02:20.388Z,13.22
2023-04-18T09:03:20.473Z,13.41
2023-04-18T09:04:20.403Z,13.43
2023-04-18T09:05:20.359Z,13.56
2023-04-18T09:06:20.371Z,14.27
2023-04-18T09:07:20.337Z,14.47
2023-04-18T09:08:20.293Z,14.61
2023-04-18T09:09:20.447Z,14.34
2023-04-18T09:10:20.269Z,13.74
2023-04-18T09:11:20.313Z,13.38
2023-04-18T09:12:20.266Z,13.02
2023-04-18T09:13:20.261Z,12.78
2023-04-18T09:14:20.241Z,12.69
2023-04-18T09:15:20.348Z,12.63
2023-04-18T09:16:20.213Z,12.63
2023-04-18T09:17:20.230Z,12.66
2023-04-18T09:18:20.222Z,12.71
2023-04-18T09:19:20.189Z,12.59
2023-04-18T09:20:20.128Z,12.41
2023-04-18T09:21:20.200Z,12.20
2023-04-18T09:22:20.112Z,12.21
2023-04-18T09:23:20.160Z,12.29
2023-04-18T09:24:20.113Z,12.33
2023-04-18T09:25:20.114Z,12.37
2023-04-18T09:26:20.085Z,12.34
2023-04-18T09:27:20.190Z,12.34
2023-04-18T09:28:20.033Z,12.37
2023-04-18T09:29:20.076Z,12.42
2023-04-18T09:30:20.007Z,12.49
2023-04-18T09:31:20.076Z,12.45
2023-04-18T09:32:20.062Z,12.52
2023-04-18T09:33:20.108Z,12.57
2023-04-18T09:34:19.950Z,12.64
2023-04-18T09:35:19.988Z,12.69
2023-04-18T09:36:20.038Z,12.75
2023-04-18T09:37:19.947Z,12.85
2023-04-18T09:38:19.925Z,12.92
2023-04-18T09:39:20.020Z,13.03
2023-04-18T09:40:19.874Z,13.14
2023-04-18T09:41:21.569Z,13.11
2023-04-18T09:42:19.856Z,12.97
2023-04-18T09:43:19.886Z,12.87
2023-04-18T09:44:20.281Z,12.97
2023-04-18T09:45:19.888Z,13.12
2023-04-18T09:46:19.857Z,13.21
2023-04-18T09:47:19.814Z,13.27
2023-04-18T09:48:19.769Z,13.18
2023-04-18T09:49:19.808Z,13.09
2023-04-18T09:50:19.774Z,12.89
2023-04-18T09:51:19.783Z,12.89
2023-04-18T09:52:19.716Z,13.06
2023-04-18T09:53:20.913Z,13.17
2023-04-18T09:54:19.680Z,13.29
2023-04-18T09:55:19.727Z,13.41
2023-04-18T09:56:19.695Z,13.58
2023-04-18T09:57:19.708Z,13.76
2023-04-18T09:58:19.760Z,13.83
2023-04-18T09:59:21.064Z,14.02
2023-04-18T10:00:19.608Z,14.14
2023-04-18T10:01:19.697Z,14.29
2023-04-18T10:02:19.710Z,14.52
2023-04-18T10:03:19.921Z,14.62
2023-04-18T10:04:19.815Z,14.75
2023-04-18T10:05:21.249Z,15.12
2023-04-18T10:06:19.551Z,15.63
2023-04-18T10:07:19.541Z,15.89
2023-04-18T10:08:19.501Z,16.35
2023-04-18T10:09:19.579Z,16.59
2023-04-18T10:10:19.477Z,16.06
2023-04-18T10:11:20.310Z,15.61
2023-04-18T10:12:19.471Z,15.02
2023-04-18T10:13:19.462Z,14.47
2023-04-18T10:14:19.443Z,14.39
2023-04-18T10:15:19.457Z,14.52
2023-04-18T10:16:19.418Z,14.90
2023-04-18T10:17:19.519Z,15.13
2023-04-18T10:18:19.442Z,15.26
2023-04-18T10:19:19.406Z,15.08
2023-04-18T10:20:19.364Z,14.87
2023-04-18T10:21:19.462Z,14.72
2023-04-18T10:22:19.307Z,14.62
2023-04-18T10:23:19.350Z,14.68
2023-04-18T10:24:19.316Z,14.80
2023-04-18T10:25:19.334Z,14.88
2023-04-18T10:26:19.273Z,14.83
2023-04-18T10:27:19.400Z,14.72
2023-04-18T10:28:19.230Z,15.33
2023-04-18T10:29:19.267Z,16.01
2023-04-18T10:30:19.200Z,16.00
2023-04-18T10:31:19.307Z,15.76
2023-04-18T10:32:19.199Z,15.28
2023-04-18T10:33:29.408Z,15.67
2023-04-18T10:34:20.391Z,15.67
2023-04-18T10:35:19.159Z,15.38
2023-04-18T10:36:19.119Z,15.21
2023-04-18T10:37:19.160Z,15.52
2023-04-18T10:38:19.119Z,16.77
2023-04-18T10:39:19.159Z,17.20
2023-04-18T10:40:19.082Z,17.99
2023-04-18T10:41:19.114Z,17.92
2023-04-18T10:42:19.044Z,17.73
2023-04-18T10:43:19.085Z,18.34
2023-04-18T10:44:19.072Z,18.37
2023-04-18T10:45:19.158Z,18.09
2023-04-18T10:46:31.120Z,18.12
2023-04-18T10:47:20.083Z,18.00
2023-04-18T10:48:18.984Z,17.81
2023-04-18T10:49:19.021Z,17.53
2023-04-18T10:50:18.942Z,17.95
2023-04-18T10:51:18.995Z,18.49
2023-04-18T10:52:18.936Z,18.99
2023-04-18T10:53:18.924Z,19.46
2023-04-18T10:54:18.913Z,19.93
2023-04-18T10:55:18.942Z,20.49
2023-04-18T10:56:18.931Z,20.46
2023-04-18T10:57:18.980Z,20.81
2023-04-18T10:58:18.852Z,21.27
2023-04-18T10:59:18.861Z,20.87
2023-04-18T11:00:18.817Z,19.36
2023-04-18T11:01:18.867Z,19.11
2023-04-18T11:02:18.817Z,19.88
2023-04-18T11:03:19.126Z,20.54
2023-04-18T11:04:19.335Z,20.39
2023-04-18T11:05:18.769Z,20.12
2023-04-18T11:06:25.458Z,20.06
2023-04-18T11:07:18.734Z,19.25
2023-04-18T11:08:18.799Z,18.43
2023-04-18T11:09:18.790Z,17.53
2023-04-18T11:10:18.682Z,16.81
2023-04-18T11:11:18.710Z,16.35
2023-04-18T11:12:18.659Z,15.93
2023-04-18T11:13:18.652Z,15.75
2023-04-18T11:14:18.641Z,15.76
2023-04-18T11:15:18.753Z,15.78
2023-04-18T11:16:18.618Z,16.52
2023-04-18T11:17:18.644Z,16.85
2023-04-18T11:18:18.567Z,16.42
2023-04-18T11:19:18.602Z,16.06
2023-04-18T11:20:18.625Z,15.92
2023-04-18T11:21:18.663Z,16.75
2023-04-18T11:22:18.536Z,17.22
2023-04-18T11:23:18.537Z,17.08
2023-04-18T11:24:18.479Z,17.36
2023-04-18T11:25:18.554Z,17.29
2023-04-18T11:26:18.483Z,17.13
2023-04-18T11:27:18.482Z,16.80
2023-04-18T11:28:18.424Z,16.60
2023-04-18T11:29:18.470Z,16.27
2023-04-18T11:30:18.484Z,15.89
2023-04-18T11:31:18.445Z,15.81
2023-04-18T11:32:21.362Z,15.96
2023-04-18T11:33:18.671Z,16.11
2023-04-18T11:34:24.278Z,16.25
2023-04-18T11:35:22.132Z,16.34
2023-04-18T11:36:20.777Z,16.89
2023-04-18T11:37:19.560Z,17.33
2023-04-18T11:38:18.692Z,18.43
2023-04-18T11:39:20.349Z,18.40
2023-04-18T11:40:22.504Z,18.34
2023-04-18T11:41:24.202Z,17.94
2023-04-18T11:42:18.291Z,18.83
2023-04-18T11:43:20.431Z,19.35
2023-04-18T11:44:20.310Z,18.61
2023-04-18T11:45:22.544Z,18.09
2023-04-18T11:46:41.058Z,17.51
2023-04-18T11:47:24.413Z,16.95
2023-04-18T11:48:19.101Z,16.78
2023-04-18T11:49:18.185Z,17.64
2023-04-18T11:50:22.832Z,18.49
2023-04-18T11:51:27.096Z,19.53
2023-04-18T11:52:32.871Z,20.02
2023-04-18T11:53:24.836Z,20.66
2023-04-18T11:54:19.915Z,21.05
2023-04-18T11:55:18.532Z,20.62
2023-04-18T11:56:19.028Z,20.87
2023-04-18T11:57:23.834Z,21.21
2023-04-18T11:58:22.316Z,21.67
2023-04-18T11:59:19.857Z,21.97
2023-04-18T12:00:23.443Z,22.16
2023-04-18T12:01:44.334Z,22.53
2023-04-18T12:02:20.206Z,21.75
2023-04-18T12:03:19.082Z,20.54
2023-04-18T12:04:22.533Z,20.74
2023-04-18T12:05:19.079Z,21.01
2023-04-18T12:06:19.870Z,21.13
2023-04-18T12:07:20.942Z,21.17
2023-04-18T12:08:19.014Z,21.44
2023-04-18T12:09:18.817Z,21.69
2023-04-18T12:10:19.761Z,21.92
2023-04-18T12:11:18.916Z,22.06
2023-04-18T12:12:19.966Z,21.94
2023-04-18T12:13:25.224Z,21.97
2023-04-18T12:14:19.761Z,21.54
2023-04-18T12:17:41.406Z,21.67
2023-04-18T12:17:51.827Z,21.81
2023-04-18T12:18:54.705Z,21.34
2023-04-18T12:19:48.014Z,21.02
2023-04-18T12:22:01.031Z,21.57
2023-04-18T12:22:05.728Z,22.37
2023-04-18T12:23:06.053Z,22.50
2023-04-18T12:24:05.736Z,22.43
2023-04-18T12:27:15.676Z,21.99
2023-04-18T12:27:20.349Z,21.23
2023-04-18T12:28:51.350Z,20.98
2023-04-18T12:29:20.313Z,20.64
2023-04-18T12:30:20.271Z,20.66
2023-04-18T12:31:20.319Z,20.34
2023-04-18T12:32:20.221Z,19.76
2023-04-18T12:34:08.496Z,20.77
2023-04-18T12:34:20.209Z,21.54
2023-04-18T12:35:20.231Z,21.60
2023-04-18T12:36:43.170Z,21.50
2023-04-18T12:37:20.211Z,22.23
2023-04-18T12:38:20.146Z,21.53
2023-04-18T12:39:20.160Z,20.53
2023-04-18T12:40:20.097Z,19.46
2023-04-18T12:41:20.232Z,18.95
2023-04-18T12:42:20.096Z,19.80
2023-04-18T12:43:20.100Z,20.71
2023-04-18T12:44:20.085Z,21.41
2023-04-18T12:45:20.106Z,22.13
2023-04-18T12:46:20.050Z,21.34
2023-04-18T12:47:20.212Z,20.59
2023-04-18T12:48:20.013Z,19.84
2023-04-18T12:49:20.055Z,18.95
2023-04-18T12:50:19.969Z,18.19
2023-04-18T12:51:20.021Z,17.74
2023-04-18T12:52:20.046Z,17.50
2023-04-18T12:53:34.876Z,17.25
2023-04-18T12:54:19.936Z,17.84
2023-04-18T12:55:19.931Z,17.97
2023-04-18T12:56:19.917Z,17.99
2023-04-18T12:57:19.916Z,17.97
2023-04-18T12:58:19.857Z,17.89
2023-04-18T12:59:20.035Z,17.62
2023-04-18T13:00:19.836Z,17.55
2023-04-18T13:11:28.258Z,18.09
2023-04-18T13:11:33.217Z,23.34
2023-04-18T13:12:32.964Z,22.99
2023-04-18T13:13:35.615Z,21.98
2023-04-18T13:14:32.885Z,20.84
2023-04-18T13:15:32.887Z,19.97
2023-04-18T13:16:32.906Z,19.32
2023-04-18T13:17:32.859Z,18.79
2023-04-18T13:18:36.949Z,19.05
2023-04-18T13:19:34.788Z,18.98
2023-04-18T13:20:38.167Z,19.33